Carr, Colorado
Current Conditions -  °F | °C
As of 6:56 AM on Wednesday 22 Oct 2014 (Local Time) from KFEW Reporting Station
Broken Clouds Broken Clouds  
Wind Chill: 45°   Ceiling: 20000
Heat Index: 47°   Visibility: 10mi
Dew Point: 36°   Wind: 5mph
Humidity: 66%   Direction: 320°NW
Pressure: 30.04"   Gusts: NA
Location:  40.9°N, 104.88°W
Report Text: KFEW 221256Z AUTO 32004KT 10SM FEW130 BKN200 08/02 A3004 RMK AO2 SLP128 T00820021 $
Loading
Personal Weather Stations






























Interactive Weather Map
Tropical Storm Tracking
New forecast layout! Learn more

10-Day Weather Forecast

Advertisements
Track Severe Weather on mobile